createdAt,value
2023-01-09T00:00:22.693Z,96216.66
2023-01-09T00:02:49.367Z,96199.94
2023-01-09T00:05:18.543Z,96180.31
2023-01-09T00:07:45.259Z,96180.88
2023-01-09T00:10:12.688Z,96205.31
2023-01-09T00:12:39.298Z,96186.78
2023-01-09T00:15:06.925Z,96171.66
2023-01-09T00:17:33.632Z,96153.13
2023-01-09T00:20:00.275Z,96156.00
2023-01-09T00:22:27.076Z,96178.50
2023-01-09T00:24:53.684Z,96158.16
2023-01-09T00:27:20.354Z,96161.22
2023-01-09T00:29:47.695Z,96143.03
2023-01-09T00:32:14.347Z,96146.44
2023-01-09T00:34:43.001Z,96160.50
2023-01-09T00:37:12.891Z,96153.84
2023-01-09T00:39:40.411Z,96130.97
2023-01-09T00:42:10.194Z,96134.41
2023-01-09T00:44:54.221Z,96168.22
2023-01-09T00:47:31.452Z,96153.13
2023-01-09T00:50:02.835Z,96147.50
2023-01-09T00:52:35.905Z,96146.78
2023-01-09T00:55:03.036Z,96132.03
2023-01-09T00:57:30.795Z,96127.72
2023-01-09T00:59:58.568Z,96114.94
2023-01-09T01:02:25.615Z,96113.13
2023-01-09T01:05:24.764Z,96107.72
2023-01-09T01:07:51.387Z,96109.88
2023-01-09T01:10:21.485Z,96103.91
2023-01-09T01:12:49.219Z,96110.22
2023-01-09T01:15:16.624Z,96097.63
2023-01-09T01:17:44.001Z,96094.72
2023-01-09T01:20:14.834Z,96091.69
2023-01-09T01:22:44.749Z,96098.16
2023-01-09T01:25:13.148Z,96092.06
2023-01-09T01:27:40.950Z,96074.03
2023-01-09T01:30:08.956Z,96074.22
2023-01-09T01:32:35.645Z,96068.34
2023-01-09T01:35:02.335Z,96065.41
2023-01-09T01:37:29.007Z,96050.69
2023-01-09T01:39:55.669Z,96048.34
2023-01-09T01:42:23.289Z,96033.59
2023-01-09T01:45:20.770Z,96037.88
2023-01-09T01:48:07.854Z,96043.84
2023-01-09T01:51:00.256Z,96041.88
2023-01-09T01:53:33.469Z,96021.69
2023-01-09T01:56:25.254Z,96022.06
2023-01-09T01:59:13.744Z,96021.69
2023-01-09T02:01:44.281Z,96015.91
2023-01-09T02:04:12.289Z,96010.69
2023-01-09T02:06:39.183Z,96004.75
2023-01-09T02:09:06.554Z,96001.53
2023-01-09T02:11:33.565Z,96008.00
2023-01-09T02:14:01.812Z,95995.00
2023-01-09T02:17:05.883Z,95992.53
2023-01-09T02:20:43.467Z,95982.09
2023-01-09T02:23:48.264Z,95973.81
2023-01-09T02:26:57.819Z,95959.19
2023-01-09T02:29:52.762Z,95956.50
2023-01-09T02:32:43.880Z,95960.63
2023-01-09T02:35:27.108Z,95964.22
2023-01-09T02:38:10.225Z,95967.28
2023-01-09T02:41:06.493Z,95947.31
2023-01-09T02:43:33.393Z,95970.19
2023-01-09T02:46:00.205Z,95977.59
2023-01-09T02:48:26.838Z,95958.34
2023-01-09T02:51:26.274Z,95979.00
2023-01-09T02:54:18.512Z,95978.63
2023-01-09T02:57:14.784Z,95979.91
2023-01-09T03:00:06.867Z,95978.47
2023-01-09T03:02:44.395Z,95985.31
2023-01-09T03:05:39.520Z,95978.50
2023-01-09T03:08:11.784Z,95980.81
2023-01-09T03:10:55.865Z,95987.47
2023-01-09T03:13:25.468Z,95985.00
2023-01-09T03:15:55.549Z,96002.06
2023-01-09T03:18:25.919Z,95981.75
2023-01-09T03:20:54.543Z,95974.22
2023-01-09T03:23:22.387Z,95952.28
2023-01-09T03:25:49.005Z,95979.16
2023-01-09T03:28:28.940Z,95948.25
2023-01-09T03:30:55.609Z,95975.94
2023-01-09T03:33:22.250Z,95950.56
2023-01-09T03:35:48.970Z,95966.81
2023-01-09T03:38:15.599Z,95958.13
2023-01-09T03:40:43.781Z,95983.16
2023-01-09T03:43:10.670Z,95944.09
2023-01-09T03:45:37.439Z,96004.91
2023-01-09T03:48:04.555Z,95991.19
2023-01-09T03:50:31.417Z,95986.75
2023-01-09T03:52:58.087Z,95989.34
2023-01-09T03:55:24.719Z,95970.72
2023-01-09T03:57:52.794Z,95992.84
2023-01-09T04:00:22.796Z,95994.25
2023-01-09T04:02:49.424Z,95997.31
2023-01-09T04:05:16.408Z,95987.63
2023-01-09T04:07:43.056Z,95976.28
2023-01-09T04:10:10.837Z,95986.16
2023-01-09T04:12:37.844Z,96000.19
2023-01-09T04:15:05.354Z,96005.06
2023-01-09T04:17:32.220Z,96015.09
2023-01-09T04:19:59.275Z,96016.34
2023-01-09T04:22:25.993Z,96008.59
2023-01-09T04:24:52.574Z,96013.97
2023-01-09T04:27:19.243Z,96020.09
2023-01-09T04:29:46.180Z,96017.78
2023-01-09T04:32:12.761Z,96017.63
2023-01-09T04:34:39.435Z,96019.59
2023-01-09T04:37:06.167Z,96021.00
2023-01-09T04:39:32.753Z,96023.91
2023-01-09T04:41:59.382Z,96028.75
2023-01-09T04:44:29.661Z,96027.16
2023-01-09T04:46:58.842Z,96035.47
2023-01-09T04:49:25.548Z,96022.47
2023-01-09T04:51:52.728Z,96026.44
2023-01-09T04:54:19.839Z,96035.63
2023-01-09T04:56:46.912Z,96039.75
2023-01-09T04:59:13.996Z,96048.97
2023-01-09T05:01:40.946Z,96052.13
2023-01-09T05:04:08.636Z,96061.31
2023-01-09T05:06:35.390Z,96064.03
2023-01-09T05:09:02.105Z,96068.69
2023-01-09T05:11:28.914Z,96082.41
2023-01-09T05:13:55.741Z,96095.56
2023-01-09T05:16:22.442Z,96102.22
2023-01-09T05:18:49.282Z,96117.31
2023-01-09T05:21:15.852Z,96138.03
2023-01-09T05:23:42.465Z,96144.88
2023-01-09T05:26:09.083Z,96154.59
2023-01-09T05:28:35.708Z,96150.63
2023-01-09T05:31:02.445Z,96161.78
2023-01-09T05:33:29.061Z,96174.19
2023-01-09T05:35:55.676Z,96193.81
2023-01-09T05:38:22.348Z,96203.88
2023-01-09T05:40:49.053Z,96208.22
2023-01-09T05:43:15.682Z,96218.81
2023-01-09T05:45:43.270Z,96219.88
2023-01-09T05:48:09.958Z,96216.81
2023-01-09T05:50:36.620Z,96210.19
2023-01-09T05:53:03.386Z,96210.19
2023-01-09T05:55:30.019Z,96210.34
2023-01-09T05:57:56.652Z,96205.31
2023-01-09T06:00:23.424Z,96211.97
2023-01-09T06:02:50.084Z,96215.94
2023-01-09T06:05:16.753Z,96209.47
2023-01-09T06:07:43.474Z,96214.31
2023-01-09T06:10:14.366Z,96221.16
2023-01-09T06:12:42.365Z,96221.16
2023-01-09T06:15:09.495Z,96230.50
2023-01-09T06:17:36.267Z,96230.88
2023-01-09T06:20:03.479Z,96231.78
2023-01-09T06:22:30.176Z,96235.00
2023-01-09T06:24:56.809Z,96223.31
2023-01-09T06:27:23.414Z,96219.72
2023-01-09T06:29:50.039Z,96222.41
2023-01-09T06:32:16.716Z,96224.56
2023-01-09T06:34:43.349Z,96229.41
2023-01-09T06:37:10.710Z,96229.78
2023-01-09T06:39:37.418Z,96229.78
2023-01-09T06:42:04.496Z,96230.47
2023-01-09T06:44:33.012Z,96236.78
2023-01-09T06:46:59.680Z,96232.28
2023-01-09T06:49:26.340Z,96237.72
2023-01-09T06:51:53.094Z,96244.53
2023-01-09T06:54:19.988Z,96258.56
2023-01-09T06:56:47.226Z,96255.16
2023-01-09T06:59:14.331Z,96254.63
2023-01-09T07:01:42.195Z,96249.03
2023-01-09T07:04:12.480Z,96252.81
2023-01-09T07:06:39.291Z,96253.00
2023-01-09T07:09:13.231Z,96257.16
2023-01-09T07:11:40.618Z,96264.88
2023-01-09T07:14:07.863Z,96260.56
2023-01-09T07:16:34.688Z,96260.22
2023-01-09T07:19:01.452Z,96268.50
2023-01-09T07:21:28.077Z,96267.41
2023-01-09T07:23:54.794Z,96262.19
2023-01-09T07:26:21.412Z,96268.31
2023-01-09T07:28:48.030Z,96267.25
2023-01-09T07:31:14.722Z,96272.47
2023-01-09T07:33:41.320Z,96277.88
2023-01-09T07:36:08.732Z,96296.75
2023-01-09T07:38:37.404Z,96331.31
2023-01-09T07:41:04.291Z,96344.84
2023-01-09T07:43:30.998Z,96352.78
2023-01-09T07:45:57.747Z,96370.03
2023-01-09T07:48:24.443Z,96369.69
2023-01-09T07:50:51.067Z,96379.44
2023-01-09T07:53:17.726Z,96381.22
2023-01-09T07:55:44.377Z,96389.88
2023-01-09T07:58:11.029Z,96390.78
2023-01-09T08:00:37.629Z,96395.47
2023-01-09T08:03:04.513Z,96391.47
2023-01-09T08:05:31.125Z,96394.38
2023-01-09T08:07:58.034Z,96389.13
2023-01-09T08:10:24.750Z,96389.84
2023-01-09T08:12:51.463Z,96392.72
2023-01-09T08:15:18.868Z,96395.06
2023-01-09T08:17:46.597Z,96401.50
2023-01-09T08:20:15.115Z,96409.44
2023-01-09T08:22:42.925Z,96413.03
2023-01-09T08:25:12.441Z,96414.66
2023-01-09T08:27:39.380Z,96424.00
2023-01-09T08:30:06.971Z,96431.75
2023-01-09T08:32:33.599Z,96433.91
2023-01-09T08:35:00.295Z,96448.13
2023-01-09T08:37:26.988Z,96439.31
2023-01-09T08:39:53.608Z,96446.66
2023-01-09T08:42:39.563Z,96447.19
2023-01-09T08:45:25.645Z,96456.13
2023-01-09T08:47:52.549Z,96460.84
2023-01-09T08:50:19.398Z,96470.59
2023-01-09T08:52:46.014Z,96478.94
2023-01-09T08:55:12.860Z,96480.88
2023-01-09T08:57:49.112Z,96488.25
2023-01-09T09:00:17.023Z,96483.41
2023-01-09T09:02:43.724Z,96499.66
2023-01-09T09:05:10.812Z,96496.56
2023-01-09T09:07:38.125Z,96496.22
2023-01-09T09:10:05.299Z,96500.22
2023-01-09T09:12:31.896Z,96511.06
2023-01-09T09:15:13.689Z,96518.06
2023-01-09T09:17:40.711Z,96517.00
2023-01-09T09:20:09.358Z,96513.38
2023-01-09T09:22:36.467Z,96519.16
2023-01-09T09:25:04.800Z,96514.59
2023-01-09T09:27:32.287Z,96509.19
2023-01-09T09:29:58.994Z,96513.84
2023-01-09T09:32:25.593Z,96501.56
2023-01-09T09:34:52.208Z,96500.25
2023-01-09T09:37:18.798Z,96504.38
2023-01-09T09:39:45.371Z,96506.78
2023-01-09T09:42:55.745Z,96500.78
2023-01-09T09:46:08.829Z,96502.97
2023-01-09T09:48:45.087Z,96490.34
2023-01-09T09:51:55.173Z,96495.53
2023-01-09T09:54:41.431Z,96499.50
2023-01-09T09:57:16.461Z,96496.06
2023-01-09T09:59:43.512Z,96491.50
2023-01-09T10:02:30.346Z,96475.50
2023-01-09T10:05:06.003Z,96475.50
2023-01-09T10:07:41.810Z,96474.41
2023-01-09T10:10:19.460Z,96473.44
2023-01-09T10:12:53.609Z,96471.06
2023-01-09T10:15:31.842Z,96470.28
2023-01-09T10:18:26.543Z,96472.22
2023-01-09T10:21:00.205Z,96473.25
2023-01-09T10:23:49.707Z,96490.59
2023-01-09T10:26:24.191Z,96484.69
2023-01-09T10:29:24.083Z,96484.63
2023-01-09T10:32:48.938Z,96489.66
2023-01-09T10:35:47.290Z,96493.03
2023-01-09T10:38:20.429Z,96492.19
2023-01-09T10:41:00.687Z,96492.69
2023-01-09T10:43:39.562Z,96488.03
2023-01-09T10:46:11.993Z,96489.66
2023-01-09T10:48:44.459Z,96493.41
2023-01-09T10:51:25.655Z,96503.53
2023-01-09T10:53:55.137Z,96497.78
2023-01-09T10:56:36.568Z,96512.34
2023-01-09T10:59:03.221Z,96510.25
2023-01-09T11:01:37.546Z,96516.94
2023-01-09T11:04:20.409Z,96526.41
2023-01-09T11:06:50.039Z,96512.06
2023-01-09T11:09:16.993Z,96508.75
2023-01-09T11:11:45.367Z,96510.47
2023-01-09T11:14:38.147Z,96519.63
2023-01-09T11:17:05.017Z,96518.22
2023-01-09T11:19:33.377Z,96516.22
2023-01-09T11:22:15.997Z,96518.47
2023-01-09T11:24:42.805Z,96509.69
2023-01-09T11:27:25.148Z,96517.66
2023-01-09T11:30:27.848Z,96513.44
2023-01-09T11:32:59.187Z,96519.28
2023-01-09T11:35:34.125Z,96518.94
2023-01-09T11:38:16.918Z,96520.81
2023-01-09T11:40:52.926Z,96520.94
2023-01-09T11:43:40.249Z,96523.53
2023-01-09T11:46:11.652Z,96514.63
2023-01-09T11:48:54.951Z,96518.44
2023-01-09T11:51:30.539Z,96531.66
2023-01-09T11:54:34.763Z,96536.66
2023-01-09T11:57:01.628Z,96540.53
2023-01-09T11:59:30.207Z,96521.44
2023-01-09T12:02:41.308Z,96511.69
2023-01-09T12:05:58.595Z,96517.38
2023-01-09T12:08:39.870Z,96526.22
2023-01-09T12:11:43.774Z,96527.56
2023-01-09T12:14:40.316Z,96529.34
2023-01-09T12:17:46.312Z,96548.13
2023-01-09T12:21:11.063Z,96547.72
2023-01-09T12:24:09.061Z,96545.91
2023-01-09T13:02:50.424Z,96537.66
2023-01-09T13:05:28.951Z,96532.63
2023-01-09T13:08:15.640Z,96537.00
2023-01-09T13:10:49.244Z,96541.94
2023-01-09T13:13:25.079Z,96530.91
2023-01-09T13:15:57.033Z,96528.69
2023-01-09T13:18:42.457Z,96528.88
2023-01-09T13:21:11.851Z,96536.84
2023-01-09T13:23:53.710Z,96527.97
2023-01-09T13:26:29.557Z,96528.69
2023-01-09T13:29:03.209Z,96531.22
2023-01-09T13:31:48.698Z,96532.19
2023-01-09T13:34:22.590Z,96537.44
2023-01-09T13:36:55.034Z,96533.28
2023-01-09T13:39:35.527Z,96540.00
2023-01-09T13:42:23.670Z,96540.44
2023-01-09T13:44:56.289Z,96544.75
2023-01-09T13:47:28.064Z,96550.00
2023-01-09T13:49:59.619Z,96544.63
2023-01-09T13:52:40.976Z,96554.75
2023-01-09T13:55:36.073Z,96562.72
2023-01-09T13:58:17.712Z,96565.38
2023-01-09T14:00:48.526Z,96566.28
2023-01-09T14:03:36.322Z,96574.03
2023-01-09T14:06:05.999Z,96577.19
2023-01-09T14:08:33.833Z,96579.19
2023-01-09T14:11:03.321Z,96579.56
2023-01-09T14:13:33.831Z,96576.13
2023-01-09T14:16:15.195Z,96579.56
2023-01-09T14:18:52.081Z,96574.84
2023-01-09T14:21:19.560Z,96578.13
2023-01-09T14:24:06.689Z,96579.22
2023-01-09T14:26:55.286Z,96580.34
2023-01-09T14:30:12.597Z,96578.13
2023-01-09T14:32:43.405Z,96577.78
2023-01-09T14:35:17.710Z,96577.06
2023-01-09T14:37:59.485Z,96591.22
2023-01-09T14:40:26.208Z,96588.75
2023-01-09T14:42:55.356Z,96593.66
2023-01-09T14:45:25.565Z,96592.75
2023-01-09T14:47:59.280Z,96587.47
2023-01-09T14:50:39.020Z,96591.31
2023-01-09T14:53:20.210Z,96595.28
2023-01-09T14:56:05.452Z,96599.44
2023-01-09T14:58:34.482Z,96590.41
2023-01-09T15:01:16.525Z,96599.25
2023-01-09T15:03:50.957Z,96584.44
2023-01-09T15:06:26.607Z,96586.59
2023-01-09T15:09:01.318Z,96586.59
2023-01-09T15:11:29.045Z,96587.53
2023-01-09T15:13:59.027Z,96580.31
2023-01-09T15:16:27.236Z,96571.44
2023-01-09T15:18:58.250Z,96571.59
2023-01-09T15:21:27.118Z,96563.44
2023-01-09T15:23:53.889Z,96565.44
2023-01-09T15:26:26.424Z,96561.31
2023-01-09T15:28:54.193Z,96571.81
2023-01-09T15:31:23.966Z,96572.53
2023-01-09T15:33:53.140Z,96578.13
2023-01-09T15:36:28.467Z,96576.13
2023-01-09T15:38:55.270Z,96578.66
2023-01-09T15:41:45.840Z,96583.00
2023-01-09T15:44:28.006Z,96583.72
2023-01-09T15:46:59.683Z,96580.13
2023-01-09T15:49:26.912Z,96581.97
2023-01-09T15:51:54.206Z,96583.94
2023-01-09T15:54:30.344Z,96581.75
2023-01-09T15:57:24.590Z,96582.69
2023-01-09T15:59:54.940Z,96576.22
2023-01-09T16:02:41.551Z,96577.88
2023-01-09T16:05:16.640Z,96579.50
2023-01-09T16:07:48.192Z,96582.63
2023-01-09T16:10:26.698Z,96581.34
2023-01-09T16:12:54.625Z,96574.81
2023-01-09T16:15:21.510Z,96583.50
2023-01-09T16:18:15.897Z,96585.66
2023-01-09T16:20:43.525Z,96587.44
2023-01-09T16:23:33.109Z,96583.09
2023-01-09T16:26:14.524Z,96584.00
2023-01-09T16:28:42.382Z,96589.31
2023-01-09T16:31:28.439Z,96596.13
2023-01-09T16:33:59.084Z,96601.38
2023-01-09T16:36:26.586Z,96592.50
2023-01-09T16:38:54.571Z,96587.81
2023-01-09T16:41:40.743Z,96597.91
2023-01-09T16:44:11.910Z,96601.19
2023-01-09T16:46:41.562Z,96600.81
2023-01-09T16:49:17.477Z,96594.09
2023-01-09T16:51:44.185Z,96599.19
2023-01-09T16:54:10.789Z,96599.56
2023-01-09T16:56:39.411Z,96599.78
2023-01-09T16:59:12.689Z,96597.41
2023-01-09T17:01:40.275Z,96594.34
2023-01-09T17:04:14.969Z,96608.81
2023-01-09T17:06:42.062Z,96608.81
2023-01-09T17:09:12.365Z,96615.84
2023-01-09T17:11:39.881Z,96622.50
2023-01-09T17:14:07.604Z,96617.81
2023-01-09T17:18:31.873Z,96631.75
2023-01-09T17:20:59.285Z,96635.16
2023-01-09T17:23:26.112Z,96635.72
2023-01-09T17:26:16.853Z,96635.88
2023-01-09T17:28:48.916Z,96639.31
2023-01-09T17:31:15.542Z,96639.88
2023-01-09T17:33:42.369Z,96635.34
2023-01-09T17:36:34.580Z,96637.50
2023-01-09T17:39:01.794Z,96636.59
2023-01-09T17:41:30.614Z,96639.88
2023-01-09T17:43:58.720Z,96640.25
2023-01-09T17:46:36.474Z,96639.34
2023-01-09T17:49:04.516Z,96638.81
2023-01-09T17:51:31.515Z,96635.91
2023-01-09T17:53:58.467Z,96642.38
2023-01-09T17:56:28.045Z,96640.59
2023-01-09T17:58:54.703Z,96636.81
2023-01-09T18:01:21.572Z,96634.84
2023-01-09T18:03:50.365Z,96634.66
2023-01-09T18:06:19.156Z,96637.00
2023-01-09T18:08:46.064Z,96641.00
2023-01-09T18:11:17.570Z,96644.44
2023-01-09T18:13:45.204Z,96650.41
2023-01-09T18:16:13.620Z,96650.06
2023-01-09T18:18:40.385Z,96648.56
2023-01-09T18:21:08.657Z,96656.16
2023-01-09T18:23:36.408Z,96657.59
2023-01-09T18:26:07.293Z,96650.56
2023-01-09T18:28:38.200Z,96660.16
2023-01-09T18:31:05.987Z,96660.69
2023-01-09T18:33:32.931Z,96657.06
2023-01-09T18:36:06.786Z,96648.59
2023-01-09T18:38:33.757Z,96652.56
2023-01-09T18:41:04.949Z,96657.28
2023-01-09T18:43:31.718Z,96664.31
2023-01-09T18:45:58.375Z,96667.19
2023-01-09T18:48:25.024Z,96680.38
2023-01-09T18:50:51.630Z,96688.50
2023-01-09T18:53:18.247Z,96685.44
2023-01-09T18:55:44.857Z,96690.47
2023-01-09T18:58:11.430Z,96690.84
2023-01-09T19:00:38.130Z,96691.75
2023-01-09T19:03:04.741Z,96683.59
2023-01-09T19:05:32.761Z,96690.84
2023-01-09T19:07:59.365Z,96689.22
2023-01-09T19:10:25.943Z,96689.22
2023-01-09T19:12:52.577Z,96687.59
2023-01-09T19:15:19.188Z,96685.59
2023-01-09T19:17:46.846Z,96692.28
2023-01-09T19:20:13.847Z,96694.97
2023-01-09T19:22:40.533Z,96684.53
2023-01-09T19:25:07.523Z,96683.97
2023-01-09T19:27:34.183Z,96688.66
2023-01-09T19:30:00.771Z,96685.25
2023-01-09T19:32:27.368Z,96688.31
2023-01-09T19:34:53.961Z,96688.84
2023-01-09T19:37:20.707Z,96689.22
2023-01-09T19:39:47.546Z,96696.09
2023-01-09T19:42:14.417Z,96694.09
2023-01-09T19:44:41.016Z,96698.44
2023-01-09T19:47:08.237Z,96711.63
2023-01-09T19:49:34.853Z,96711.25
2023-01-09T19:52:01.436Z,96705.31
2023-01-09T19:54:29.261Z,96711.06
2023-01-09T19:56:56.000Z,96709.09
2023-01-09T19:59:22.654Z,96711.78
2023-01-09T20:01:49.701Z,96715.78
2023-01-09T20:04:17.441Z,96721.38
2023-01-09T20:06:49.333Z,96727.50
2023-01-09T20:09:18.166Z,96732.75
2023-01-09T20:11:45.034Z,96736.34
2023-01-09T20:14:13.826Z,96739.44
2023-01-09T20:16:40.796Z,96751.91
2023-01-09T20:19:08.585Z,96744.28
2023-01-09T20:21:36.131Z,96753.69
2023-01-09T20:24:08.279Z,96762.91
2023-01-09T20:26:36.985Z,96761.28
2023-01-09T20:29:04.087Z,96771.75
2023-01-09T20:31:32.471Z,96774.66
2023-01-09T20:33:59.922Z,96778.63
2023-01-09T20:36:29.170Z,96777.53
2023-01-09T20:39:00.590Z,96780.59
2023-01-09T20:41:29.414Z,96782.97
2023-01-09T20:43:58.913Z,96776.81
2023-01-09T20:46:28.661Z,96772.66
2023-01-09T20:48:57.283Z,96782.78
2023-01-09T20:51:24.495Z,96781.16
2023-01-09T20:53:55.721Z,96788.00
2023-01-09T20:56:26.886Z,96780.81
2023-01-09T20:58:53.771Z,96791.81
2023-01-09T21:01:22.755Z,96788.00
2023-01-09T21:03:50.355Z,96794.34
2023-01-09T21:06:18.401Z,96803.19
2023-01-09T21:08:47.040Z,96806.41
2023-01-09T21:11:15.078Z,96794.31
2023-01-09T21:13:41.715Z,96808.56
2023-01-09T21:16:11.461Z,96813.59
2023-01-09T21:18:38.530Z,96811.81
2023-01-09T21:21:07.150Z,96811.25
2023-01-09T21:23:33.776Z,96816.16
2023-01-09T21:26:00.768Z,96822.50
2023-01-09T21:28:30.733Z,96826.63
2023-01-09T21:30:57.537Z,96827.34
2023-01-09T21:33:24.164Z,96830.56
2023-01-09T21:35:58.408Z,96832.75
2023-01-09T21:38:26.594Z,96838.50
2023-01-09T21:40:54.331Z,96845.56
2023-01-09T21:43:43.792Z,96839.59
2023-01-09T21:46:38.094Z,96847.16
2023-01-09T21:49:06.182Z,96852.56
2023-01-09T21:51:38.780Z,96857.97
2023-01-09T21:54:05.504Z,96861.97
2023-01-09T21:56:32.204Z,96864.09
2023-01-09T21:58:58.772Z,96871.78
2023-01-09T22:01:25.402Z,96872.00
2023-01-09T22:03:55.645Z,96884.78
2023-01-09T22:06:22.720Z,96883.50
2023-01-09T22:08:49.594Z,96876.78
2023-01-09T22:11:16.365Z,96883.63
2023-01-09T22:13:47.703Z,96898.03
2023-01-09T22:16:14.394Z,96889.47
2023-01-09T22:18:41.067Z,96893.50
2023-01-09T22:21:07.618Z,96895.13
2023-01-09T22:23:34.317Z,96904.69
2023-01-09T22:26:07.944Z,96907.06
2023-01-09T22:28:34.544Z,96909.28
2023-01-09T22:31:01.245Z,96919.91
2023-01-09T22:33:27.823Z,96917.22
2023-01-09T22:35:54.434Z,96912.47
2023-01-09T22:38:21.044Z,96915.56
2023-01-09T22:40:47.670Z,96922.28
2023-01-09T22:43:16.333Z,96927.25
2023-01-09T22:45:43.059Z,96927.31
2023-01-09T22:48:09.975Z,96928.00
2023-01-09T22:50:37.184Z,96932.47
2023-01-09T22:53:03.802Z,96937.94
2023-01-09T22:55:30.400Z,96939.00
2023-01-09T22:57:57.016Z,96933.59
2023-01-09T23:00:23.773Z,96943.38
2023-01-09T23:02:50.494Z,96939.16
2023-01-09T23:05:19.621Z,96934.19
2023-01-09T23:07:46.232Z,96937.22
2023-01-09T23:10:12.793Z,96933.09
2023-01-09T23:12:39.409Z,96935.66
2023-01-09T23:15:07.040Z,96938.56
2023-01-09T23:17:33.676Z,96941.00
2023-01-09T23:20:00.233Z,96939.78
2023-01-09T23:22:27.051Z,96940.41
2023-01-09T23:24:53.658Z,96940.06
2023-01-09T23:27:20.271Z,96947.59
2023-01-09T23:29:46.996Z,96957.22
2023-01-09T23:32:14.137Z,96960.72
2023-01-09T23:34:41.610Z,96960.03
2023-01-09T23:37:09.649Z,96960.00
2023-01-09T23:39:36.373Z,96954.97
2023-01-09T23:42:21.695Z,96955.91
2023-01-09T23:44:48.396Z,96958.28
2023-01-09T23:47:15.083Z,96963.94
2023-01-09T23:49:41.718Z,96969.19
2023-01-09T23:52:08.743Z,96964.84
2023-01-09T23:54:35.551Z,96972.50
2023-01-09T23:57:02.310Z,96958.25
2023-01-09T23:59:28.958Z,96970.13
